Hauptseite
METAR-TAF:

METAR-TAF

Flughäfen :

Flughafen Wien-Schwechat

Wien, Österreich

Breite: 48-07N, Länge: 016-34E, Höhe: 183 m

Beobachtung

Neuester Wetterbericht von vor 30 Minuten, um 07:20 UTC
Wind 9 kt aus Nordwest
Temperatur 6°C
Luftfeuchtigkeit 70%
Luftdruck 1020 hPa
Sichtweite 10 km oder mehr
Leicht bewölkt in der Höhe von 2000 ft

METAR: LOWW 170720Z 32009KT 9999 FEW020 06/01 Q1020 NOSIG

Zeit: 09:50 (07:50 UTC)

Prognose

Neuester Wetterbericht von vor 2 Stunden und 35 Minuten, um 05:15 UTC
Gültige Prognose vom 17 um 06 UTC bis 18 um 12 UTC
Wind 10 kt aus Nord/Nordwest
Sichtweite 10 km oder mehr
Durchbrochene Bewölkung in der Höhe von 3500 ft

TAF: LOWW 170515Z 1706/1812 33010KT 9999 BKN035 TX09/1714Z TN05/1804Z

Wetterbeobachtungen und Prognosen von mehr als 4000 Flughäfen (METAR und TAF Bericht).

Die verfügbaren Stationen werden durch gelbe und rote Markierungen auf der Karte dargestellt.

Führen Sie die Maus auf sie, um den Namen der Station zu sehen.

Darauf klicken, um die Beobachtung von Wetterbeobachtungen und Prognosen zu sehen.

Um die Karte zu ändern : klicken Sie auf den grünen Tasten mit einem schwarzen Kreuz Zum Vergrößern, auf den grünen Button mit einem Gedankenstrich zu verkleinern, oder auf die grünen Pfeile für benachbarte Karten.


METAR-TAF: